createdAt,value
2018-03-29T00:01:17.936Z,96.89
2018-03-29T00:03:45.342Z,97.28
2018-03-29T00:06:12.745Z,96.91
2018-03-29T00:08:40.153Z,96.71
2018-03-29T00:11:07.542Z,97.09
2018-03-29T00:13:34.920Z,97.06
2018-03-29T00:16:02.338Z,97.04
2018-03-29T00:18:29.744Z,97.02
2018-03-29T00:20:57.133Z,95.91
2018-03-29T00:23:24.545Z,96.69
2018-03-29T00:25:51.944Z,96.81
2018-03-29T00:28:19.336Z,96.47
2018-03-29T00:30:46.760Z,96.33
2018-03-29T00:33:14.127Z,96.43
2018-03-29T00:35:41.525Z,96.39
2018-03-29T00:38:08.928Z,96.16
2018-03-29T00:40:36.357Z,96.42
2018-03-29T00:43:03.823Z,96.80
2018-03-29T00:45:32.030Z,95.85
2018-03-29T00:47:59.476Z,96.05
2018-03-29T00:50:26.880Z,96.77
2018-03-29T00:52:54.276Z,96.46
2018-03-29T00:55:21.668Z,96.11
2018-03-29T00:57:49.057Z,96.51
2018-03-29T01:00:16.441Z,96.35
2018-03-29T01:02:43.846Z,96.16
2018-03-29T01:05:11.226Z,96.00
2018-03-29T01:07:38.616Z,95.96
2018-03-29T01:10:06.047Z,95.68
2018-03-29T01:12:33.428Z,96.01
2018-03-29T01:15:00.821Z,95.09
2018-03-29T01:17:28.217Z,95.75
2018-03-29T01:19:55.621Z,95.36
2018-03-29T01:22:23.008Z,95.58
2018-03-29T01:24:50.391Z,95.39
2018-03-29T01:27:17.796Z,95.76
2018-03-29T01:29:45.184Z,95.12
2018-03-29T01:32:12.564Z,94.83
2018-03-29T01:34:40.163Z,94.71
2018-03-29T01:37:07.558Z,94.82
2018-03-29T01:39:34.937Z,94.73
2018-03-29T01:42:02.339Z,93.28
2018-03-29T01:44:29.744Z,93.75
2018-03-29T01:46:57.149Z,93.78
2018-03-29T01:49:24.532Z,94.30
2018-03-29T01:51:51.920Z,94.38
2018-03-29T01:54:19.332Z,93.83
2018-03-29T01:56:46.743Z,93.23
2018-03-29T01:59:14.132Z,93.22
2018-03-29T02:01:41.506Z,93.77
2018-03-29T02:04:08.898Z,93.69
2018-03-29T02:06:36.298Z,93.40
2018-03-29T02:09:03.703Z,92.78
2018-03-29T02:11:31.062Z,93.18
2018-03-29T02:13:58.448Z,92.23
2018-03-29T02:16:25.829Z,92.80
2018-03-29T02:18:53.209Z,92.46
2018-03-29T02:21:20.588Z,93.45
2018-03-29T02:23:47.992Z,92.10
2018-03-29T02:26:15.411Z,92.29
2018-03-29T02:28:42.768Z,91.90
2018-03-29T02:31:10.152Z,92.29
2018-03-29T02:33:37.532Z,92.59
2018-03-29T02:36:04.916Z,92.31
2018-03-29T02:38:32.336Z,92.33
2018-03-29T02:40:59.753Z,92.67
2018-03-29T02:43:27.133Z,92.04
2018-03-29T02:45:54.529Z,92.17
2018-03-29T02:48:21.967Z,92.69
2018-03-29T02:50:49.360Z,92.60
2018-03-29T02:53:16.725Z,92.50
2018-03-29T02:55:44.141Z,92.15
2018-03-29T02:58:11.533Z,92.45
2018-03-29T03:00:38.929Z,92.45
2018-03-29T03:03:06.293Z,91.90
2018-03-29T03:05:33.677Z,91.21
2018-03-29T03:08:01.078Z,91.78
2018-03-29T03:10:28.456Z,91.81
2018-03-29T03:12:55.848Z,91.43
2018-03-29T03:15:23.229Z,91.33
2018-03-29T03:17:50.625Z,90.81
2018-03-29T03:20:18.000Z,90.93
2018-03-29T03:22:45.390Z,90.35
2018-03-29T03:25:12.776Z,89.93
2018-03-29T03:27:40.197Z,89.70
2018-03-29T03:30:07.575Z,89.58
2018-03-29T03:32:34.965Z,89.95
2018-03-29T03:35:02.349Z,89.85
2018-03-29T03:37:29.725Z,89.79
2018-03-29T03:39:57.116Z,88.82
2018-03-29T03:42:24.493Z,88.41
2018-03-29T03:44:51.892Z,88.49
2018-03-29T03:47:19.292Z,87.50
2018-03-29T03:49:46.678Z,87.98
2018-03-29T03:52:14.053Z,87.24
2018-03-29T03:54:41.458Z,87.73
2018-03-29T03:57:08.816Z,88.08
2018-03-29T03:59:36.208Z,87.12
2018-03-29T04:02:03.648Z,87.56
2018-03-29T04:04:31.025Z,87.77
2018-03-29T04:06:58.408Z,87.81
2018-03-29T04:09:25.847Z,87.64
2018-03-29T04:11:53.183Z,87.56
2018-03-29T04:14:20.576Z,88.09
2018-03-29T04:16:47.971Z,88.53
2018-03-29T04:19:15.383Z,88.77
2018-03-29T04:21:42.752Z,89.49
2018-03-29T04:24:10.130Z,89.76
2018-03-29T04:26:37.530Z,89.84
2018-03-29T04:29:04.930Z,89.62
2018-03-29T04:31:32.329Z,89.10
2018-03-29T04:33:59.712Z,89.18
2018-03-29T04:36:27.096Z,89.53
2018-03-29T04:38:54.489Z,89.42
2018-03-29T04:41:21.900Z,88.88
2018-03-29T04:43:49.277Z,89.11
2018-03-29T04:46:16.665Z,89.22
2018-03-29T04:48:44.062Z,89.04
2018-03-29T04:51:11.447Z,88.74
2018-03-29T04:53:38.825Z,89.13
2018-03-29T04:56:06.221Z,88.98
2018-03-29T04:58:33.620Z,88.80
2018-03-29T05:01:01.046Z,88.86
2018-03-29T05:03:28.459Z,89.55
2018-03-29T05:05:55.878Z,88.88
2018-03-29T05:08:23.257Z,88.93
2018-03-29T05:10:50.657Z,89.14
2018-03-29T05:13:18.061Z,89.18
2018-03-29T05:15:45.445Z,89.41
2018-03-29T05:18:12.862Z,89.53
2018-03-29T05:20:40.240Z,89.80
2018-03-29T05:23:07.633Z,89.69
2018-03-29T05:25:35.016Z,89.57
2018-03-29T05:28:02.431Z,89.42
2018-03-29T05:30:29.809Z,89.50
2018-03-29T05:32:57.194Z,89.11
2018-03-29T05:35:24.593Z,88.77
2018-03-29T05:37:51.976Z,89.03
2018-03-29T05:40:19.385Z,88.86
2018-03-29T05:42:46.799Z,88.82
2018-03-29T05:45:14.194Z,88.78
2018-03-29T05:47:41.597Z,88.59
2018-03-29T05:50:08.968Z,88.74
2018-03-29T05:52:36.357Z,88.47
2018-03-29T05:55:04.868Z,88.32
2018-03-29T05:57:32.272Z,87.99
2018-03-29T05:59:59.670Z,88.04
2018-03-29T06:02:27.049Z,88.25
2018-03-29T06:04:54.437Z,87.06
2018-03-29T06:07:21.821Z,87.36
2018-03-29T06:09:49.218Z,87.88
2018-03-29T06:12:16.609Z,88.49
2018-03-29T06:14:45.788Z,88.63
2018-03-29T06:17:18.705Z,89.07
2018-03-29T06:19:46.088Z,88.39
2018-03-29T06:22:13.461Z,88.38
2018-03-29T06:24:40.861Z,88.16
2018-03-29T06:27:08.236Z,88.50
2018-03-29T06:29:35.631Z,88.43
2018-03-29T06:32:03.007Z,88.79
2018-03-29T06:34:31.577Z,88.59
2018-03-29T06:36:58.985Z,87.90
2018-03-29T06:39:26.389Z,87.30
2018-03-29T06:41:53.786Z,88.60
2018-03-29T06:44:21.164Z,88.36
2018-03-29T06:46:48.556Z,88.10
2018-03-29T06:49:16.029Z,87.78
2018-03-29T06:51:43.482Z,87.74
2018-03-29T06:54:10.875Z,88.00
2018-03-29T06:56:38.252Z,87.67
2018-03-29T06:59:05.641Z,87.33
2018-03-29T07:01:33.029Z,87.08
2018-03-29T07:04:01.129Z,86.62
2018-03-29T07:06:28.536Z,87.25
2018-03-29T07:08:55.940Z,85.39
2018-03-29T07:11:23.372Z,85.36
2018-03-29T07:13:51.352Z,85.74
2018-03-29T07:16:18.745Z,85.22
2018-03-29T07:18:47.125Z,84.12
2018-03-29T07:21:14.524Z,83.95
2018-03-29T07:23:41.912Z,84.49
2018-03-29T07:26:09.330Z,84.79
2018-03-29T07:28:36.705Z,84.42
2018-03-29T07:31:04.106Z,83.44
2018-03-29T07:33:31.485Z,83.50
2018-03-29T07:35:58.868Z,82.66
2018-03-29T07:38:26.291Z,82.63
2018-03-29T07:40:53.684Z,82.43
2018-03-29T07:43:21.084Z,83.08
2018-03-29T07:45:48.469Z,82.41
2018-03-29T07:48:15.868Z,82.64
2018-03-29T07:50:43.268Z,81.20
2018-03-29T07:53:10.665Z,81.85
2018-03-29T07:55:38.031Z,80.95
2018-03-29T07:58:05.410Z,81.46
2018-03-29T08:00:32.828Z,80.99
2018-03-29T08:03:00.201Z,82.16
2018-03-29T08:05:27.618Z,81.33
2018-03-29T08:07:55.002Z,80.86
2018-03-29T08:10:22.388Z,81.38
2018-03-29T08:12:49.800Z,80.93
2018-03-29T08:15:17.228Z,81.87
2018-03-29T08:17:44.640Z,81.81
2018-03-29T08:20:12.041Z,81.72
2018-03-29T08:22:39.411Z,81.90
2018-03-29T08:25:06.805Z,82.09
2018-03-29T08:27:34.873Z,81.90
2018-03-29T08:30:02.281Z,82.18
2018-03-29T08:32:29.659Z,82.00
2018-03-29T08:34:57.052Z,82.57
2018-03-29T08:37:24.431Z,83.11
2018-03-29T08:39:51.839Z,82.76
2018-03-29T08:42:19.251Z,82.01
2018-03-29T08:44:46.620Z,82.31
2018-03-29T08:47:13.997Z,82.98
2018-03-29T08:49:41.373Z,82.60
2018-03-29T08:52:08.770Z,81.95
2018-03-29T08:54:36.145Z,82.13
2018-03-29T08:57:03.532Z,81.31
2018-03-29T08:59:30.922Z,81.45
2018-03-29T09:01:58.312Z,82.30
2018-03-29T09:04:25.695Z,81.20
2018-03-29T09:06:53.133Z,81.40
2018-03-29T09:09:20.503Z,81.35
2018-03-29T09:11:47.884Z,81.11
2018-03-29T09:14:15.260Z,81.00
2018-03-29T09:16:42.669Z,79.94
2018-03-29T09:19:10.091Z,80.98
2018-03-29T09:21:37.470Z,80.81
2018-03-29T09:24:04.861Z,80.22
2018-03-29T09:26:32.261Z,79.97
2018-03-29T09:28:59.660Z,80.14
2018-03-29T09:31:27.064Z,80.11
2018-03-29T09:33:54.449Z,80.11
2018-03-29T09:36:21.857Z,79.52
2018-03-29T09:38:49.252Z,78.40
2018-03-29T09:41:16.644Z,78.30
2018-03-29T09:43:44.036Z,78.50
2018-03-29T09:46:11.598Z,78.30
2018-03-29T09:48:38.968Z,78.32
2018-03-29T09:51:06.351Z,78.47
2018-03-29T09:53:33.752Z,78.34
2018-03-29T09:56:01.228Z,76.68
2018-03-29T09:58:28.608Z,75.17
2018-03-29T10:01:02.257Z,74.08
2018-03-29T10:03:29.663Z,73.79
2018-03-29T10:06:02.655Z,72.44
2018-03-29T10:08:30.064Z,73.20
2018-03-29T10:10:57.449Z,73.60
2018-03-29T10:13:24.832Z,71.19
2018-03-29T10:15:53.105Z,71.36
2018-03-29T10:18:20.472Z,72.00
2018-03-29T10:20:49.982Z,68.75
2018-03-29T10:23:17.453Z,69.50
2018-03-29T10:25:44.838Z,69.61
2018-03-29T10:28:12.224Z,68.92
2018-03-29T10:30:39.614Z,68.01
2018-03-29T10:33:08.001Z,69.26
2018-03-29T10:35:36.344Z,69.10
2018-03-29T10:38:03.757Z,66.44
2018-03-29T10:40:31.160Z,66.67
2018-03-29T10:42:58.597Z,63.63
2018-03-29T10:45:26.979Z,66.97
2018-03-29T10:47:54.364Z,67.70
2018-03-29T10:50:22.561Z,65.33
2018-03-29T10:52:50.564Z,67.13
2018-03-29T10:55:17.984Z,65.51
2018-03-29T10:57:48.782Z,66.90
2018-03-29T11:00:16.168Z,64.47
2018-03-29T11:02:43.548Z,65.82
2018-03-29T11:05:10.953Z,64.30
2018-03-29T11:07:38.359Z,62.58
2018-03-29T11:10:05.736Z,60.62
2018-03-29T11:12:33.152Z,56.90
2018-03-29T11:15:00.547Z,56.90
2018-03-29T11:17:27.933Z,58.28
2018-03-29T11:19:55.369Z,64.28
2018-03-29T11:22:22.789Z,65.70
2018-03-29T11:24:50.245Z,67.20
2018-03-29T11:27:17.637Z,63.92
2018-03-29T11:29:45.319Z,65.63
2018-03-29T11:32:12.688Z,64.36
2018-03-29T11:34:40.097Z,64.26
2018-03-29T11:37:07.527Z,65.28
2018-03-29T11:39:34.925Z,64.60
2018-03-29T11:42:02.318Z,65.08
2018-03-29T11:44:29.715Z,66.07
2018-03-29T11:46:57.105Z,65.04
2018-03-29T11:49:24.532Z,61.72
2018-03-29T11:51:51.913Z,61.70
2018-03-29T11:54:19.368Z,62.70
2018-03-29T11:56:46.781Z,60.52
2018-03-29T11:59:14.188Z,60.54
2018-03-29T12:01:41.580Z,59.32
2018-03-29T12:04:09.249Z,62.20
2018-03-29T12:06:36.641Z,63.37
2018-03-29T12:09:04.036Z,65.65
2018-03-29T12:11:31.437Z,67.23
2018-03-29T12:13:58.829Z,68.11
2018-03-29T12:16:26.204Z,66.78
2018-03-29T12:18:53.641Z,65.20
2018-03-29T12:21:21.025Z,65.29
2018-03-29T12:23:48.421Z,65.88
2018-03-29T12:26:16.332Z,66.01
2018-03-29T12:28:43.734Z,64.83
2018-03-29T12:31:11.120Z,66.26
2018-03-29T12:33:38.568Z,65.92
2018-03-29T12:36:07.632Z,65.40
2018-03-29T12:38:35.024Z,64.99
2018-03-29T12:41:02.441Z,66.62
2018-03-29T12:43:29.818Z,67.18
2018-03-29T12:45:57.212Z,69.84
2018-03-29T12:48:24.593Z,67.47
2018-03-29T12:50:51.978Z,68.55
2018-03-29T12:53:19.359Z,69.92
2018-03-29T12:55:47.324Z,66.13
2018-03-29T12:58:14.684Z,66.06
2018-03-29T13:00:42.085Z,63.79
2018-03-29T13:03:10.252Z,62.93
2018-03-29T13:05:37.642Z,62.90
2018-03-29T13:08:05.078Z,62.63
2018-03-29T13:10:32.465Z,61.83
2018-03-29T13:12:59.853Z,60.72
2018-03-29T13:15:27.258Z,61.17
2018-03-29T13:17:54.648Z,62.09
2018-03-29T13:20:22.843Z,60.86
2018-03-29T13:22:50.244Z,61.61
2018-03-29T13:25:18.641Z,60.75
2018-03-29T13:27:46.354Z,60.04
2018-03-29T13:30:13.805Z,57.66
2018-03-29T13:32:41.176Z,57.61
2018-03-29T13:35:08.560Z,58.19
2018-03-29T13:37:35.948Z,57.85
2018-03-29T13:40:03.346Z,57.47
2018-03-29T13:42:30.734Z,60.18
2018-03-29T13:44:58.128Z,59.20
2018-03-29T13:47:25.517Z,56.86
2018-03-29T13:49:52.920Z,52.92
2018-03-29T13:52:20.320Z,50.76
2018-03-29T13:54:47.708Z,51.77
2018-03-29T13:57:15.440Z,50.69
2018-03-29T13:59:42.850Z,50.84
2018-03-29T14:02:10.248Z,52.25
2018-03-29T14:04:37.641Z,51.09
2018-03-29T14:07:05.027Z,49.14
2018-03-29T14:09:32.488Z,49.67
2018-03-29T14:11:59.861Z,51.60
2018-03-29T14:14:27.616Z,49.54
2018-03-29T14:16:55.088Z,49.15
2018-03-29T14:19:22.477Z,49.42
2018-03-29T14:21:49.885Z,52.13
2018-03-29T14:24:17.262Z,52.96
2018-03-29T14:26:44.669Z,52.38
2018-03-29T14:29:12.101Z,54.11
2018-03-29T14:31:39.512Z,56.15
2018-03-29T14:34:06.903Z,56.71
2018-03-29T14:36:34.318Z,56.38
2018-03-29T14:39:01.713Z,57.97
2018-03-29T14:41:29.103Z,52.31
2018-03-29T14:43:56.518Z,54.78
2018-03-29T14:46:23.969Z,51.46
2018-03-29T14:48:51.341Z,54.84
2018-03-29T14:51:18.737Z,52.25
2018-03-29T14:53:46.116Z,51.85
2018-03-29T14:56:13.512Z,50.84
2018-03-29T14:58:40.910Z,51.08
2018-03-29T15:01:08.338Z,50.90
2018-03-29T15:03:35.725Z,50.60
2018-03-29T15:06:03.129Z,50.89
2018-03-29T15:08:30.524Z,51.50
2018-03-29T15:10:57.931Z,50.49
2018-03-29T15:13:25.368Z,49.74
2018-03-29T15:15:52.759Z,49.36
2018-03-29T15:18:20.184Z,49.90
2018-03-29T15:20:47.569Z,50.46
2018-03-29T15:23:14.956Z,48.64
2018-03-29T15:25:42.608Z,49.79
2018-03-29T15:28:10.133Z,50.15
2018-03-29T15:30:37.512Z,50.88
2018-03-29T15:33:04.892Z,51.44
2018-03-29T15:35:32.284Z,50.84
2018-03-29T15:37:59.672Z,51.70
2018-03-29T15:40:27.061Z,49.29
2018-03-29T15:42:55.270Z,51.05
2018-03-29T15:45:22.693Z,50.79
2018-03-29T15:47:50.081Z,50.19
2018-03-29T15:50:17.468Z,51.15
2018-03-29T15:52:44.865Z,49.84
2018-03-29T15:55:12.240Z,52.35
2018-03-29T15:57:39.638Z,50.85
2018-03-29T16:00:07.092Z,51.80
2018-03-29T16:02:34.500Z,51.86
2018-03-29T16:05:01.906Z,50.61
2018-03-29T16:07:29.300Z,49.56
2018-03-29T16:09:56.684Z,49.32
2018-03-29T16:12:24.205Z,49.87
2018-03-29T16:14:51.601Z,50.57
2018-03-29T16:17:19.005Z,50.76
2018-03-29T16:19:46.411Z,49.54
2018-03-29T16:22:13.828Z,50.11
2018-03-29T16:24:41.413Z,49.83
2018-03-29T16:27:08.799Z,50.76
2018-03-29T16:29:36.208Z,50.17
2018-03-29T16:32:03.645Z,49.15
2018-03-29T16:34:30.997Z,50.54
2018-03-29T16:36:58.392Z,50.15
2018-03-29T16:39:26.037Z,50.04
2018-03-29T16:41:53.542Z,50.70
2018-03-29T16:44:20.996Z,50.82
2018-03-29T16:46:48.406Z,50.17
2018-03-29T16:49:15.866Z,50.24
2018-03-29T16:51:43.348Z,50.77
2018-03-29T16:54:10.742Z,51.56
2018-03-29T16:56:38.304Z,50.99
2018-03-29T16:59:05.697Z,51.30
2018-03-29T17:01:33.149Z,52.75
2018-03-29T17:04:01.337Z,50.47
2018-03-29T17:06:28.878Z,50.09
2018-03-29T17:08:57.254Z,49.72
2018-03-29T17:11:24.626Z,50.86
2018-03-29T17:13:52.052Z,52.57
2018-03-29T17:16:19.442Z,52.47
2018-03-29T17:18:46.837Z,53.38
2018-03-29T17:21:14.341Z,53.61
2018-03-29T17:23:41.745Z,52.96
2018-03-29T17:26:09.132Z,55.84
2018-03-29T17:28:36.520Z,56.99
2018-03-29T17:31:03.908Z,55.16
2018-03-29T17:33:31.296Z,56.91
2018-03-29T17:35:58.685Z,58.54
2018-03-29T17:38:26.085Z,59.88
2018-03-29T17:40:53.470Z,59.49
2018-03-29T17:43:20.861Z,59.65
2018-03-29T17:45:48.253Z,59.92
2018-03-29T17:48:15.729Z,60.22
2018-03-29T17:50:43.096Z,61.25
2018-03-29T17:53:10.495Z,62.18
2018-03-29T17:55:37.899Z,63.18
2018-03-29T17:58:05.333Z,63.49
2018-03-29T18:00:32.743Z,63.05
2018-03-29T18:03:00.137Z,61.97
2018-03-29T18:05:27.617Z,61.43
2018-03-29T18:07:58.605Z,61.66
2018-03-29T18:10:25.984Z,62.46
2018-03-29T18:12:53.478Z,62.46
2018-03-29T18:15:20.850Z,62.45
2018-03-29T18:17:48.241Z,63.08
2018-03-29T18:20:15.678Z,63.10
2018-03-29T18:22:43.068Z,63.33
2018-03-29T18:25:10.462Z,63.76
2018-03-29T18:27:37.860Z,63.66
2018-03-29T18:30:05.253Z,65.19
2018-03-29T18:32:32.625Z,65.35
2018-03-29T18:35:00.053Z,66.35
2018-03-29T18:37:27.511Z,67.09
2018-03-29T18:39:54.888Z,68.02
2018-03-29T18:42:22.281Z,68.66
2018-03-29T18:44:49.669Z,68.98
2018-03-29T18:47:17.053Z,69.63
2018-03-29T18:49:44.450Z,69.76
2018-03-29T18:52:11.833Z,70.46
2018-03-29T18:54:39.238Z,70.78
2018-03-29T18:57:06.613Z,70.65
2018-03-29T18:59:33.993Z,70.87
2018-03-29T19:02:01.524Z,71.12
2018-03-29T19:04:28.912Z,71.46
2018-03-29T19:06:56.335Z,71.87
2018-03-29T19:09:23.709Z,72.34
2018-03-29T19:11:51.107Z,72.89
2018-03-29T19:14:18.493Z,73.27
2018-03-29T19:16:45.880Z,73.38
2018-03-29T19:19:13.257Z,74.02
2018-03-29T19:21:40.651Z,74.22
2018-03-29T19:24:08.044Z,74.34
2018-03-29T19:26:35.421Z,74.31
2018-03-29T19:29:02.813Z,74.71
2018-03-29T19:31:30.189Z,74.66
2018-03-29T19:33:57.593Z,74.81
2018-03-29T19:36:24.989Z,74.82
2018-03-29T19:38:52.633Z,75.22
2018-03-29T19:41:20.016Z,75.18
2018-03-29T19:43:47.392Z,75.31
2018-03-29T19:46:14.826Z,75.24
2018-03-29T19:48:42.164Z,75.13
2018-03-29T19:51:09.549Z,75.56
2018-03-29T19:53:36.932Z,75.59
2018-03-29T19:56:04.317Z,75.44
2018-03-29T19:58:31.725Z,75.50
2018-03-29T20:00:59.076Z,75.58
2018-03-29T20:03:26.466Z,75.84
2018-03-29T20:05:53.912Z,75.80
2018-03-29T20:08:21.292Z,76.05
2018-03-29T20:10:48.670Z,76.29
2018-03-29T20:13:16.054Z,76.57
2018-03-29T20:15:43.432Z,76.48
2018-03-29T20:18:10.817Z,76.61
2018-03-29T20:20:38.192Z,76.83
2018-03-29T20:23:05.580Z,76.42
2018-03-29T20:25:32.958Z,76.47
2018-03-29T20:28:00.344Z,76.53
2018-03-29T20:30:27.729Z,76.49
2018-03-29T20:32:55.392Z,76.32
2018-03-29T20:35:22.771Z,75.93
2018-03-29T20:37:50.152Z,75.67
2018-03-29T20:40:17.534Z,75.55
2018-03-29T20:42:44.911Z,75.61
2018-03-29T20:45:12.289Z,75.87
2018-03-29T20:47:39.669Z,75.35
2018-03-29T20:50:07.061Z,75.73
2018-03-29T20:52:34.437Z,75.82
2018-03-29T20:55:01.820Z,75.58
2018-03-29T20:57:29.200Z,75.71
2018-03-29T20:59:56.588Z,75.52
2018-03-29T21:02:23.968Z,75.72
2018-03-29T21:04:51.347Z,75.37
2018-03-29T21:07:18.728Z,75.89
2018-03-29T21:09:46.114Z,75.90
2018-03-29T21:12:13.492Z,76.04
2018-03-29T21:14:40.868Z,75.99
2018-03-29T21:17:08.253Z,75.56
2018-03-29T21:19:35.648Z,75.81
2018-03-29T21:22:03.040Z,76.09
2018-03-29T21:24:30.416Z,75.97
2018-03-29T21:26:57.792Z,76.34
2018-03-29T21:29:25.180Z,76.28
2018-03-29T21:31:52.572Z,76.13
2018-03-29T21:34:19.959Z,75.71
2018-03-29T21:36:47.341Z,76.02
2018-03-29T21:39:14.725Z,75.92
2018-03-29T21:41:42.105Z,76.64
2018-03-29T21:44:09.495Z,76.64
2018-03-29T21:46:36.912Z,76.47
2018-03-29T21:49:04.258Z,76.49
2018-03-29T21:51:31.646Z,76.06
2018-03-29T21:53:59.036Z,76.29
2018-03-29T21:56:26.408Z,76.32
2018-03-29T21:58:53.789Z,76.50
2018-03-29T22:01:21.173Z,76.53
2018-03-29T22:03:48.552Z,76.54
2018-03-29T22:06:15.950Z,76.70
2018-03-29T22:08:43.328Z,76.26
2018-03-29T22:11:10.713Z,76.41
2018-03-29T22:13:52.900Z,76.37
2018-03-29T22:16:20.296Z,76.60
2018-03-29T22:18:47.672Z,76.25
2018-03-29T22:21:15.057Z,76.26
2018-03-29T22:23:42.457Z,75.94
2018-03-29T22:26:09.833Z,76.00
2018-03-29T22:28:37.218Z,75.67
2018-03-29T22:31:04.597Z,75.88
2018-03-29T22:33:31.984Z,76.03
2018-03-29T22:35:59.363Z,76.14
2018-03-29T22:38:26.763Z,76.28
2018-03-29T22:40:54.129Z,76.34
2018-03-29T22:43:21.520Z,76.54
2018-03-29T22:45:48.899Z,76.64
2018-03-29T22:48:16.282Z,76.65
2018-03-29T22:50:43.665Z,76.49
2018-03-29T22:53:11.053Z,76.93
2018-03-29T22:55:38.439Z,76.60
2018-03-29T22:58:05.818Z,76.45
2018-03-29T23:00:34.968Z,76.76
2018-03-29T23:03:02.352Z,76.81
2018-03-29T23:05:29.732Z,76.76
2018-03-29T23:07:57.117Z,76.92
2018-03-29T23:10:24.509Z,77.04
2018-03-29T23:12:51.888Z,77.22
2018-03-29T23:15:19.268Z,77.43
2018-03-29T23:17:46.662Z,77.50
2018-03-29T23:20:14.041Z,77.56
2018-03-29T23:22:41.425Z,77.38
2018-03-29T23:25:08.801Z,77.45
2018-03-29T23:27:37.096Z,77.38
2018-03-29T23:30:04.476Z,77.15
2018-03-29T23:32:31.863Z,77.31
2018-03-29T23:34:59.236Z,76.81
2018-03-29T23:37:26.615Z,77.12
2018-03-29T23:39:53.993Z,76.85
2018-03-29T23:42:21.370Z,76.52
2018-03-29T23:44:48.752Z,76.64
2018-03-29T23:47:16.132Z,76.29
2018-03-29T23:49:43.516Z,75.56
2018-03-29T23:52:10.900Z,75.41
2018-03-29T23:54:38.285Z,75.15
2018-03-29T23:57:06.594Z,75.39
2018-03-29T23:59:33.977Z,75.10
